sensor_id;sensor_type;location;lat;lon;timestamp;pressure;altitude;pressure_sealevel;temperature;humidity
60646;BME280;46462;32.608;-117.032;2023-06-14T00:01:42;99382.58;;;23.49;53.20
60646;BME280;46462;32.608;-117.032;2023-06-14T00:04:13;99378.99;;;23.46;53.30
60646;BME280;46462;32.608;-117.032;2023-06-14T00:06:44;99376.13;;;23.46;53.33
60646;BME280;46462;32.608;-117.032;2023-06-14T00:09:14;99374.61;;;23.43;53.34
60646;BME280;46462;32.608;-117.032;2023-06-14T00:11:45;99371.36;;;23.46;53.21
60646;BME280;46462;32.608;-117.032;2023-06-14T00:14:15;99372.56;;;23.46;53.16
60646;BME280;46462;32.608;-117.032;2023-06-14T00:16:46;99370.03;;;23.46;53.20
60646;BME280;46462;32.608;-117.032;2023-06-14T00:19:16;99363.56;;;23.41;53.32
60646;BME280;46462;32.608;-117.032;2023-06-14T00:21:47;99364.99;;;23.43;53.22
60646;BME280;46462;32.608;-117.032;2023-06-14T00:24:19;99362.39;;;23.40;53.31
60646;BME280;46462;32.608;-117.032;2023-06-14T00:26:48;99363.75;;;23.40;53.27
60646;BME280;46462;32.608;-117.032;2023-06-14T00:29:19;99364.72;;;23.39;53.26
60646;BME280;46462;32.608;-117.032;2023-06-14T00:31:50;99361.97;;;23.38;53.27
60646;BME280;46462;32.608;-117.032;2023-06-14T00:34:21;99359.94;;;23.37;53.26
60646;BME280;46462;32.608;-117.032;2023-06-14T00:36:51;99358.60;;;23.41;53.18
60646;BME280;46462;32.608;-117.032;2023-06-14T00:39:22;99358.84;;;23.42;53.07
60646;BME280;46462;32.608;-117.032;2023-06-14T00:41:53;99354.38;;;23.42;53.05
60646;BME280;46462;32.608;-117.032;2023-06-14T00:44:23;99356.56;;;23.42;53.06
60646;BME280;46462;32.608;-117.032;2023-06-14T00:46:54;99353.39;;;23.40;53.08
60646;BME280;46462;32.608;-117.032;2023-06-14T00:49:25;99357.83;;;23.42;53.04
60646;BME280;46462;32.608;-117.032;2023-06-14T00:51:56;99353.76;;;23.44;52.98
60646;BME280;46462;32.608;-117.032;2023-06-14T00:54:26;99353.96;;;23.40;53.07
60646;BME280;46462;32.608;-117.032;2023-06-14T00:56:57;99350.37;;;23.40;53.03
60646;BME280;46462;32.608;-117.032;2023-06-14T00:59:28;99350.37;;;23.40;53.02
60646;BME280;46462;32.608;-117.032;2023-06-14T01:01:59;99346.98;;;23.42;52.92
60646;BME280;46462;32.608;-117.032;2023-06-14T01:04:29;99346.60;;;23.42;52.88
60646;BME280;46462;32.608;-117.032;2023-06-14T01:07:05;99343.64;;;23.44;52.86
60646;BME280;46462;32.608;-117.032;2023-06-14T01:09:37;99343.92;;;23.39;52.94
60646;BME280;46462;32.608;-117.032;2023-06-14T01:12:09;99342.77;;;23.41;52.88
60646;BME280;46462;32.608;-117.032;2023-06-14T01:14:32;99341.14;;;23.39;52.92
60646;BME280;46462;32.608;-117.032;2023-06-14T01:17:03;99340.35;;;23.42;52.85
60646;BME280;46462;32.608;-117.032;2023-06-14T01:19:34;99340.98;;;23.41;52.86
60646;BME280;46462;32.608;-117.032;2023-06-14T01:22:05;99338.13;;;23.41;52.83
60646;BME280;46462;32.608;-117.032;2023-06-14T01:24:35;99337.17;;;23.36;52.94
60646;BME280;46462;32.608;-117.032;2023-06-14T01:27:06;99336.35;;;23.38;52.90
60646;BME280;46462;32.608;-117.032;2023-06-14T01:29:37;99335.38;;;23.37;52.93
60646;BME280;46462;32.608;-117.032;2023-06-14T01:32:08;99334.31;;;23.33;52.96
60646;BME280;46462;32.608;-117.032;2023-06-14T01:34:38;99332.73;;;23.34;52.95
60646;BME280;46462;32.608;-117.032;2023-06-14T01:37:09;99330.20;;;23.37;52.87
60646;BME280;46462;32.608;-117.032;2023-06-14T01:39:39;99327.20;;;23.34;52.94
60646;BME280;46462;32.608;-117.032;2023-06-14T01:42:10;99330.28;;;23.38;52.84
60646;BME280;46462;32.608;-117.032;2023-06-14T01:44:42;99328.51;;;23.41;52.75
60646;BME280;46462;32.608;-117.032;2023-06-14T01:47:12;99325.61;;;23.42;52.69
60646;BME280;46462;32.608;-117.032;2023-06-14T01:49:42;99326.76;;;23.40;52.74
60646;BME280;46462;32.608;-117.032;2023-06-14T01:52:13;99331.33;;;23.41;52.74
60646;BME280;46462;32.608;-117.032;2023-06-14T01:54:44;99335.54;;;23.39;52.77
60646;BME280;46462;32.608;-117.032;2023-06-14T01:57:14;99339.37;;;23.34;52.91
60646;BME280;46462;32.608;-117.032;2023-06-14T01:59:45;99338.06;;;23.30;52.95
60646;BME280;46462;32.608;-117.032;2023-06-14T02:02:16;99341.67;;;23.32;52.90
60646;BME280;46462;32.608;-117.032;2023-06-14T02:04:46;99344.54;;;23.32;52.87
60646;BME280;46462;32.608;-117.032;2023-06-14T02:07:17;99346.58;;;23.33;52.85
60646;BME280;46462;32.608;-117.032;2023-06-14T02:09:48;99349.81;;;23.30;52.89
60646;BME280;46462;32.608;-117.032;2023-06-14T02:12:19;99346.08;;;23.29;52.88
60646;BME280;46462;32.608;-117.032;2023-06-14T02:14:49;99344.64;;;23.31;52.85
60646;BME280;46462;32.608;-117.032;2023-06-14T02:17:20;99351.17;;;23.31;52.84
60646;BME280;46462;32.608;-117.032;2023-06-14T02:19:51;99351.66;;;23.29;52.87
60646;BME280;46462;32.608;-117.032;2023-06-14T02:22:22;99349.30;;;23.32;52.79
60646;BME280;46462;32.608;-117.032;2023-06-14T02:24:52;99347.76;;;23.24;52.94
60646;BME280;46462;32.608;-117.032;2023-06-14T02:27:23;99350.83;;;23.23;52.95
60646;BME280;46462;32.608;-117.032;2023-06-14T02:29:53;99355.06;;;23.25;52.92
60646;BME280;46462;32.608;-117.032;2023-06-14T02:32:24;99359.98;;;23.23;52.96
60646;BME280;46462;32.608;-117.032;2023-06-14T02:34:55;99361.16;;;23.20;52.98
60646;BME280;46462;32.608;-117.032;2023-06-14T02:37:26;99363.77;;;23.22;52.90
60646;BME280;46462;32.608;-117.032;2023-06-14T02:39:56;99363.49;;;23.20;52.96
60646;BME280;46462;32.608;-117.032;2023-06-14T02:42:27;99361.09;;;23.18;52.98
60646;BME280;46462;32.608;-117.032;2023-06-14T02:44:58;99360.60;;;23.19;52.95
60646;BME280;46462;32.608;-117.032;2023-06-14T02:47:29;99361.77;;;23.22;52.87
60646;BME280;46462;32.608;-117.032;2023-06-14T02:49:59;99362.09;;;23.18;52.93
60646;BME280;46462;32.608;-117.032;2023-06-14T02:52:30;99363.46;;;23.17;52.93
60646;BME280;46462;32.608;-117.032;2023-06-14T02:55:01;99367.60;;;23.14;52.98
60646;BME280;46462;32.608;-117.032;2023-06-14T02:57:31;99368.41;;;23.17;52.90
60646;BME280;46462;32.608;-117.032;2023-06-14T03:00:02;99371.50;;;23.14;52.90
60646;BME280;46462;32.608;-117.032;2023-06-14T03:02:33;99371.84;;;23.13;52.91
60646;BME280;46462;32.608;-117.032;2023-06-14T03:05:07;99370.44;;;23.10;52.97
60646;BME280;46462;32.608;-117.032;2023-06-14T03:07:37;99371.93;;;23.09;52.98
60646;BME280;46462;32.608;-117.032;2023-06-14T03:10:08;99371.92;;;23.09;52.96
60646;BME280;46462;32.608;-117.032;2023-06-14T03:12:37;99373.25;;;23.12;52.84
60646;BME280;46462;32.608;-117.032;2023-06-14T03:15:08;99375.43;;;23.12;52.87
60646;BME280;46462;32.608;-117.032;2023-06-14T03:17:38;99373.75;;;23.11;52.85
60646;BME280;46462;32.608;-117.032;2023-06-14T03:20:09;99377.47;;;23.09;52.89
60646;BME280;46462;32.608;-117.032;2023-06-14T03:22:39;99373.44;;;23.09;52.89
60646;BME280;46462;32.608;-117.032;2023-06-14T03:25:10;99373.42;;;23.11;52.79
60646;BME280;46462;32.608;-117.032;2023-06-14T03:27:41;99376.44;;;23.11;52.77
60646;BME280;46462;32.608;-117.032;2023-06-14T03:30:12;99378.35;;;23.12;52.75
60646;BME280;46462;32.608;-117.032;2023-06-14T03:32:42;99384.68;;;23.14;52.66
60646;BME280;46462;32.608;-117.032;2023-06-14T03:35:13;99386.74;;;23.15;52.60
60646;BME280;46462;32.608;-117.032;2023-06-14T03:37:44;99384.44;;;23.16;52.56
60646;BME280;46462;32.608;-117.032;2023-06-14T03:40:17;99385.21;;;23.15;52.58
60646;BME280;46462;32.608;-117.032;2023-06-14T03:42:45;99392.13;;;23.13;52.60
60646;BME280;46462;32.608;-117.032;2023-06-14T03:45:16;99390.20;;;23.11;52.66
60646;BME280;46462;32.608;-117.032;2023-06-14T03:47:47;99391.77;;;23.09;52.68
60646;BME280;46462;32.608;-117.032;2023-06-14T03:50:18;99392.57;;;23.05;52.78
60646;BME280;46462;32.608;-117.032;2023-06-14T03:52:48;99395.28;;;23.09;52.67
60646;BME280;46462;32.608;-117.032;2023-06-14T03:55:19;99396.32;;;23.08;52.66
60646;BME280;46462;32.608;-117.032;2023-06-14T03:57:50;99397.98;;;23.08;52.64
60646;BME280;46462;32.608;-117.032;2023-06-14T04:00:20;99402.45;;;23.06;52.70
60646;BME280;46462;32.608;-117.032;2023-06-14T04:02:51;99401.41;;;23.05;52.72
60646;BME280;46462;32.608;-117.032;2023-06-14T04:05:22;99402.91;;;23.05;52.72
60646;BME280;46462;32.608;-117.032;2023-06-14T04:07:53;99406.24;;;23.08;52.60
60646;BME280;46462;32.608;-117.032;2023-06-14T04:10:23;99408.65;;;23.06;52.65
60646;BME280;46462;32.608;-117.032;2023-06-14T04:12:54;99405.52;;;23.09;52.55
60646;BME280;46462;32.608;-117.032;2023-06-14T04:15:25;99407.37;;;23.11;52.47
60646;BME280;46462;32.608;-117.032;2023-06-14T04:17:55;99409.88;;;23.08;52.51
60646;BME280;46462;32.608;-117.032;2023-06-14T04:20:26;99407.63;;;23.09;52.50
60646;BME280;46462;32.608;-117.032;2023-06-14T04:23:10;99408.30;;;23.07;52.50
60646;BME280;46462;32.608;-117.032;2023-06-14T04:25:28;99413.05;;;23.03;52.63
60646;BME280;46462;32.608;-117.032;2023-06-14T04:27:58;99419.79;;;23.06;52.53
60646;BME280;46462;32.608;-117.032;2023-06-14T04:30:29;99426.18;;;23.00;52.67
60646;BME280;46462;32.608;-117.032;2023-06-14T04:33:00;99428.90;;;23.00;52.67
60646;BME280;46462;32.608;-117.032;2023-06-14T04:35:30;99433.51;;;22.99;52.65
60646;BME280;46462;32.608;-117.032;2023-06-14T04:38:01;99433.36;;;23.00;52.59
60646;BME280;46462;32.608;-117.032;2023-06-14T04:40:33;99432.12;;;22.96;52.70
60646;BME280;46462;32.608;-117.032;2023-06-14T04:43:02;99437.00;;;22.97;52.66
60646;BME280;46462;32.608;-117.032;2023-06-14T04:45:33;99442.21;;;22.96;52.65
60646;BME280;46462;32.608;-117.032;2023-06-14T04:48:04;99441.61;;;22.97;52.60
60646;BME280;46462;32.608;-117.032;2023-06-14T04:50:35;99438.81;;;22.96;52.63
60646;BME280;46462;32.608;-117.032;2023-06-14T04:53:05;99438.20;;;22.94;52.62
60646;BME280;46462;32.608;-117.032;2023-06-14T04:55:36;99436.70;;;22.95;52.59
60646;BME280;46462;32.608;-117.032;2023-06-14T04:58:07;99438.00;;;22.95;52.57
60646;BME280;46462;32.608;-117.032;2023-06-14T05:00:38;99438.02;;;22.93;52.63
60646;BME280;46462;32.608;-117.032;2023-06-14T05:03:08;99440.16;;;22.96;52.53
60646;BME280;46462;32.608;-117.032;2023-06-14T05:05:40;99439.96;;;22.94;52.58
60646;BME280;46462;32.608;-117.032;2023-06-14T05:08:10;99437.96;;;22.94;52.56
60646;BME280;46462;32.608;-117.032;2023-06-14T05:10:40;99433.53;;;22.91;52.61
60646;BME280;46462;32.608;-117.032;2023-06-14T05:13:11;99430.40;;;22.94;52.54
60646;BME280;46462;32.608;-117.032;2023-06-14T05:15:42;99422.95;;;22.91;52.60
60646;BME280;46462;32.608;-117.032;2023-06-14T05:18:13;99423.49;;;22.92;52.58
60646;BME280;46462;32.608;-117.032;2023-06-14T05:20:43;99419.80;;;22.91;52.59
60646;BME280;46462;32.608;-117.032;2023-06-14T05:23:14;99419.93;;;22.88;52.67
60646;BME280;46462;32.608;-117.032;2023-06-14T05:25:45;99417.24;;;22.85;52.74
60646;BME280;46462;32.608;-117.032;2023-06-14T05:28:16;99416.08;;;22.85;52.72
60646;BME280;46462;32.608;-117.032;2023-06-14T05:30:47;99415.08;;;22.84;52.76
60646;BME280;46462;32.608;-117.032;2023-06-14T05:33:17;99415.74;;;22.84;52.75
60646;BME280;46462;32.608;-117.032;2023-06-14T05:35:48;99415.20;;;22.82;52.78
60646;BME280;46462;32.608;-117.032;2023-06-14T05:38:19;99411.95;;;22.84;52.73
60646;BME280;46462;32.608;-117.032;2023-06-14T05:40:49;99409.81;;;22.83;52.74
60646;BME280;46462;32.608;-117.032;2023-06-14T05:43:20;99412.48;;;22.89;52.58
60646;BME280;46462;32.608;-117.032;2023-06-14T05:45:51;99414.12;;;22.92;52.49
60646;BME280;46462;32.608;-117.032;2023-06-14T05:48:22;99411.71;;;22.91;52.50
60646;BME280;46462;32.608;-117.032;2023-06-14T05:50:52;99407.86;;;22.92;52.45
60646;BME280;46462;32.608;-117.032;2023-06-14T05:53:23;99398.54;;;22.93;52.39
60646;BME280;46462;32.608;-117.032;2023-06-14T05:55:54;99396.75;;;22.95;52.34
60646;BME280;46462;32.608;-117.032;2023-06-14T05:58:25;99395.50;;;22.96;52.28
60646;BME280;46462;32.608;-117.032;2023-06-14T06:00:55;99393.19;;;22.95;52.29
60646;BME280;46462;32.608;-117.032;2023-06-14T06:03:26;99391.12;;;22.94;52.30
60646;BME280;46462;32.608;-117.032;2023-06-14T06:05:57;99395.53;;;22.94;52.26
60646;BME280;46462;32.608;-117.032;2023-06-14T06:08:27;99399.01;;;22.91;52.33
60646;BME280;46462;32.608;-117.032;2023-06-14T06:10:58;99396.90;;;22.93;52.26
60646;BME280;46462;32.608;-117.032;2023-06-14T06:13:29;99395.14;;;22.93;52.24
60646;BME280;46462;32.608;-117.032;2023-06-14T06:16:00;99392.81;;;22.92;52.25
60646;BME280;46462;32.608;-117.032;2023-06-14T06:18:30;99388.75;;;22.90;52.28
60646;BME280;46462;32.608;-117.032;2023-06-14T06:21:01;99385.18;;;22.88;52.30
60646;BME280;46462;32.608;-117.032;2023-06-14T06:23:32;99389.36;;;22.89;52.28
60646;BME280;46462;32.608;-117.032;2023-06-14T06:26:03;99385.01;;;22.85;52.35
60646;BME280;46462;32.608;-117.032;2023-06-14T06:28:33;99386.55;;;22.85;52.37
60646;BME280;46462;32.608;-117.032;2023-06-14T06:31:04;99387.92;;;22.82;52.43
60646;BME280;46462;32.608;-117.032;2023-06-14T06:33:35;99384.02;;;22.81;52.44
60646;BME280;46462;32.608;-117.032;2023-06-14T06:36:06;99385.14;;;22.81;52.45
60646;BME280;46462;32.608;-117.032;2023-06-14T06:38:36;99384.23;;;22.81;52.46
60646;BME280;46462;32.608;-117.032;2023-06-14T06:41:07;99381.84;;;22.81;52.40
60646;BME280;46462;32.608;-117.032;2023-06-14T06:43:38;99385.29;;;22.81;52.42
60646;BME280;46462;32.608;-117.032;2023-06-14T06:46:08;99390.04;;;22.79;52.46
60646;BME280;46462;32.608;-117.032;2023-06-14T06:48:39;99396.10;;;22.78;52.50
60646;BME280;46462;32.608;-117.032;2023-06-14T06:51:10;99394.38;;;22.80;52.46
60646;BME280;46462;32.608;-117.032;2023-06-14T06:53:42;99391.78;;;22.79;52.45
60646;BME280;46462;32.608;-117.032;2023-06-14T06:56:11;99389.24;;;22.79;52.44
60646;BME280;46462;32.608;-117.032;2023-06-14T06:58:42;99386.44;;;22.78;52.45
60646;BME280;46462;32.608;-117.032;2023-06-14T07:01:13;99387.53;;;22.80;52.40
60646;BME280;46462;32.608;-117.032;2023-06-14T07:03:44;99389.85;;;22.79;52.43
60646;BME280;46462;32.608;-117.032;2023-06-14T07:06:17;99388.56;;;22.78;52.44
60646;BME280;46462;32.608;-117.032;2023-06-14T07:08:45;99385.65;;;22.75;52.51
60646;BME280;46462;32.608;-117.032;2023-06-14T07:11:16;99376.99;;;22.75;52.51
60646;BME280;46462;32.608;-117.032;2023-06-14T07:13:47;99371.59;;;22.74;52.52
60646;BME280;46462;32.608;-117.032;2023-06-14T07:16:17;99367.50;;;22.76;52.47
60646;BME280;46462;32.608;-117.032;2023-06-14T07:18:48;99364.26;;;22.74;52.53
60646;BME280;46462;32.608;-117.032;2023-06-14T07:21:19;99356.95;;;22.79;52.40
60646;BME280;46462;32.608;-117.032;2023-06-14T07:23:49;99353.56;;;22.82;52.29
60646;BME280;46462;32.608;-117.032;2023-06-14T07:26:20;99355.08;;;22.85;52.21
60646;BME280;46462;32.608;-117.032;2023-06-14T07:28:51;99354.23;;;22.86;52.15
60646;BME280;46462;32.608;-117.032;2023-06-14T07:31:22;99353.14;;;22.88;52.12
60646;BME280;46462;32.608;-117.032;2023-06-14T07:33:53;99355.72;;;22.86;52.14
60646;BME280;46462;32.608;-117.032;2023-06-14T07:36:23;99355.29;;;22.83;52.22
60646;BME280;46462;32.608;-117.032;2023-06-14T07:38:54;99350.43;;;22.83;52.22
60646;BME280;46462;32.608;-117.032;2023-06-14T07:41:25;99350.21;;;22.82;52.26
60646;BME280;46462;32.608;-117.032;2023-06-14T07:43:55;99353.31;;;22.80;52.29
60646;BME280;46462;32.608;-117.032;2023-06-14T07:46:26;99353.53;;;22.79;52.31
60646;BME280;46462;32.608;-117.032;2023-06-14T07:48:57;99351.22;;;22.80;52.26
60646;BME280;46462;32.608;-117.032;2023-06-14T07:51:28;99347.67;;;22.80;52.26
60646;BME280;46462;32.608;-117.032;2023-06-14T07:54:00;99342.32;;;22.80;52.26
60646;BME280;46462;32.608;-117.032;2023-06-14T07:56:29;99334.97;;;22.80;52.26
60646;BME280;46462;32.608;-117.032;2023-06-14T07:59:00;99337.50;;;22.80;52.25
60646;BME280;46462;32.608;-117.032;2023-06-14T08:01:31;99335.86;;;22.81;52.22
60646;BME280;46462;32.608;-117.032;2023-06-14T08:04:01;99335.11;;;22.84;52.10
60646;BME280;46462;32.608;-117.032;2023-06-14T08:06:32;99332.53;;;22.82;52.17
60646;BME280;46462;32.608;-117.032;2023-06-14T08:09:03;99328.75;;;22.82;52.14
60646;BME280;46462;32.608;-117.032;2023-06-14T08:11:34;99328.40;;;22.85;52.05
60646;BME280;46462;32.608;-117.032;2023-06-14T08:14:04;99330.39;;;22.84;52.08
60646;BME280;46462;32.608;-117.032;2023-06-14T08:16:35;99329.37;;;22.90;51.91
60646;BME280;46462;32.608;-117.032;2023-06-14T08:19:06;99327.83;;;22.88;51.94
60646;BME280;46462;32.608;-117.032;2023-06-14T08:21:36;99326.78;;;22.88;51.92
60646;BME280;46462;32.608;-117.032;2023-06-14T08:24:07;99323.86;;;22.85;51.97
60646;BME280;46462;32.608;-117.032;2023-06-14T08:26:38;99317.67;;;22.87;51.94
60646;BME280;46462;32.608;-117.032;2023-06-14T08:29:09;99315.90;;;22.78;52.17
60646;BME280;46462;32.608;-117.032;2023-06-14T08:31:40;99314.24;;;22.79;52.14
60646;BME280;46462;32.608;-117.032;2023-06-14T08:34:10;99313.03;;;22.78;52.16
60646;BME280;46462;32.608;-117.032;2023-06-14T08:36:41;99315.43;;;22.80;52.11
60646;BME280;46462;32.608;-117.032;2023-06-14T08:39:12;99311.53;;;22.83;52.00
60646;BME280;46462;32.608;-117.032;2023-06-14T08:41:43;99310.45;;;22.84;51.97
60646;BME280;46462;32.608;-117.032;2023-06-14T08:44:13;99310.42;;;22.79;52.10
60646;BME280;46462;32.608;-117.032;2023-06-14T08:46:44;99317.87;;;22.77;52.20
60646;BME280;46462;32.608;-117.032;2023-06-14T08:49:17;99320.02;;;22.75;52.24
60646;BME280;46462;32.608;-117.032;2023-06-14T08:51:46;99319.62;;;22.76;52.24
60646;BME280;46462;32.608;-117.032;2023-06-14T08:54:16;99317.36;;;22.73;52.33
60646;BME280;46462;32.608;-117.032;2023-06-14T08:56:47;99312.11;;;22.73;52.31
60646;BME280;46462;32.608;-117.032;2023-06-14T08:59:18;99308.68;;;22.70;52.38
60646;BME280;46462;32.608;-117.032;2023-06-14T09:01:49;99303.41;;;22.73;52.28
60646;BME280;46462;32.608;-117.032;2023-06-14T09:04:19;99299.10;;;22.74;52.28
60646;BME280;46462;32.608;-117.032;2023-06-14T09:06:50;99294.26;;;22.72;52.27
60646;BME280;46462;32.608;-117.032;2023-06-14T09:09:21;99294.45;;;22.77;52.13
60646;BME280;46462;32.608;-117.032;2023-06-14T09:11:51;99294.51;;;22.81;51.95
60646;BME280;46462;32.608;-117.032;2023-06-14T09:14:24;99292.81;;;22.79;51.99
60646;BME280;46462;32.608;-117.032;2023-06-14T09:16:54;99295.82;;;22.81;51.93
60646;BME280;46462;32.608;-117.032;2023-06-14T09:19:24;99297.21;;;22.82;51.90
60646;BME280;46462;32.608;-117.032;2023-06-14T09:21:54;99296.40;;;22.76;52.06
60646;BME280;46462;32.608;-117.032;2023-06-14T09:24:25;99294.61;;;22.73;52.12
60646;BME280;46462;32.608;-117.032;2023-06-14T09:26:56;99294.08;;;22.72;52.16
60646;BME280;46462;32.608;-117.032;2023-06-14T09:29:26;99291.64;;;22.71;52.18
60646;BME280;46462;32.608;-117.032;2023-06-14T09:31:57;99288.11;;;22.71;52.20
60646;BME280;46462;32.608;-117.032;2023-06-14T09:34:28;99281.79;;;22.70;52.18
60646;BME280;46462;32.608;-117.032;2023-06-14T09:36:58;99274.65;;;22.73;52.01
60646;BME280;46462;32.608;-117.032;2023-06-14T09:39:29;99270.69;;;22.69;52.17
60646;BME280;46462;32.608;-117.032;2023-06-14T09:42:00;99271.37;;;22.69;52.25
60646;BME280;46462;32.608;-117.032;2023-06-14T09:44:31;99273.69;;;22.69;52.23
60646;BME280;46462;32.608;-117.032;2023-06-14T09:47:03;99270.03;;;22.72;52.16
60646;BME280;46462;32.608;-117.032;2023-06-14T09:49:32;99263.45;;;22.74;52.04
60646;BME280;46462;32.608;-117.032;2023-06-14T09:52:04;99265.79;;;22.79;51.90
60646;BME280;46462;32.608;-117.032;2023-06-14T09:54:37;99266.26;;;22.75;51.97
60646;BME280;46462;32.608;-117.032;2023-06-14T09:57:06;99265.50;;;22.74;52.00
60646;BME280;46462;32.608;-117.032;2023-06-14T09:59:36;99262.00;;;22.75;52.01
60646;BME280;46462;32.608;-117.032;2023-06-14T10:02:11;99257.01;;;22.74;52.06
60646;BME280;46462;32.608;-117.032;2023-06-14T10:04:38;99259.84;;;22.74;52.00
60646;BME280;46462;32.608;-117.032;2023-06-14T10:07:08;99267.13;;;22.75;52.00
60646;BME280;46462;32.608;-117.032;2023-06-14T10:09:38;99275.69;;;22.75;51.96
60646;BME280;46462;32.608;-117.032;2023-06-14T10:12:09;99279.23;;;22.78;51.89
60646;BME280;46462;32.608;-117.032;2023-06-14T10:14:40;99283.72;;;22.76;51.92
60646;BME280;46462;32.608;-117.032;2023-06-14T10:17:16;99286.15;;;22.76;51.94
60646;BME280;46462;32.608;-117.032;2023-06-14T10:19:44;99287.17;;;22.78;51.86
60646;BME280;46462;32.608;-117.032;2023-06-14T10:22:17;99291.29;;;22.76;51.89
60646;BME280;46462;32.608;-117.032;2023-06-14T10:24:44;99294.08;;;22.76;51.85
60646;BME280;46462;32.608;-117.032;2023-06-14T10:27:14;99291.54;;;22.72;51.97
60646;BME280;46462;32.608;-117.032;2023-06-14T10:32:15;99287.19;;;22.70;51.99
60646;BME280;46462;32.608;-117.032;2023-06-14T10:34:49;99287.49;;;22.71;51.95
60646;BME280;46462;32.608;-117.032;2023-06-14T10:37:16;99287.88;;;22.74;51.88
60646;BME280;46462;32.608;-117.032;2023-06-14T10:39:47;99290.27;;;22.70;52.01
60646;BME280;46462;32.608;-117.032;2023-06-14T10:42:18;99285.54;;;22.70;51.94
60646;BME280;46462;32.608;-117.032;2023-06-14T10:44:50;99285.45;;;22.70;51.91
60646;BME280;46462;32.608;-117.032;2023-06-14T10:47:24;99284.23;;;22.70;51.94
60646;BME280;46462;32.608;-117.032;2023-06-14T10:49:52;99287.70;;;22.67;52.03
60646;BME280;46462;32.608;-117.032;2023-06-14T10:52:24;99290.13;;;22.71;51.91
60646;BME280;46462;32.608;-117.032;2023-06-14T10:55:00;99287.54;;;22.68;51.97
60646;BME280;46462;32.608;-117.032;2023-06-14T10:57:22;99286.48;;;22.75;51.77
60646;BME280;46462;32.608;-117.032;2023-06-14T10:59:53;99285.76;;;22.74;51.83
60646;BME280;46462;32.608;-117.032;2023-06-14T11:04:55;99287.64;;;22.70;51.87
60646;BME280;46462;32.608;-117.032;2023-06-14T11:07:35;99292.24;;;22.71;51.80
60646;BME280;46462;32.608;-117.032;2023-06-14T11:10:09;99290.68;;;22.72;51.77
60646;BME280;46462;32.608;-117.032;2023-06-14T11:12:28;99290.97;;;22.70;51.83
60646;BME280;46462;32.608;-117.032;2023-06-14T11:14:58;99286.39;;;22.68;51.90
60646;BME280;46462;32.608;-117.032;2023-06-14T11:17:28;99287.31;;;22.70;51.84
60646;BME280;46462;32.608;-117.032;2023-06-14T11:22:30;99285.92;;;22.72;51.75
60646;BME280;46462;32.608;-117.032;2023-06-14T11:25:02;99286.67;;;22.69;51.82
60646;BME280;46462;32.608;-117.032;2023-06-14T11:27:33;99285.26;;;22.70;51.80
60646;BME280;46462;32.608;-117.032;2023-06-14T11:30:02;99283.30;;;22.68;51.83
60646;BME280;46462;32.608;-117.032;2023-06-14T11:32:33;99281.37;;;22.65;51.89
60646;BME280;46462;32.608;-117.032;2023-06-14T11:35:07;99280.59;;;22.66;51.88
60646;BME280;46462;32.608;-117.032;2023-06-14T11:37:37;99278.26;;;22.64;51.90
60646;BME280;46462;32.608;-117.032;2023-06-14T11:40:08;99274.66;;;22.63;51.93
60646;BME280;46462;32.608;-117.032;2023-06-14T11:42:39;99271.57;;;22.64;51.91
60646;BME280;46462;32.608;-117.032;2023-06-14T11:45:09;99272.83;;;22.62;51.99
60646;BME280;46462;32.608;-117.032;2023-06-14T11:47:39;99271.76;;;22.65;51.87
60646;BME280;46462;32.608;-117.032;2023-06-14T11:50:10;99272.99;;;22.65;51.89
60646;BME280;46462;32.608;-117.032;2023-06-14T11:52:40;99271.81;;;22.71;51.73
60646;BME280;46462;32.608;-117.032;2023-06-14T11:55:10;99266.22;;;22.70;51.71
60646;BME280;46462;32.608;-117.032;2023-06-14T11:57:41;99263.20;;;22.71;51.69
60646;BME280;46462;32.608;-117.032;2023-06-14T12:00:13;99266.07;;;22.68;51.75
60646;BME280;46462;32.608;-117.032;2023-06-14T12:02:51;99268.01;;;22.69;51.80
60646;BME280;46462;32.608;-117.032;2023-06-14T12:05:13;99269.57;;;22.71;51.76
60646;BME280;46462;32.608;-117.032;2023-06-14T12:07:44;99270.33;;;22.71;51.75
60646;BME280;46462;32.608;-117.032;2023-06-14T12:10:15;99269.12;;;22.71;51.74
60646;BME280;46462;32.608;-117.032;2023-06-14T12:12:46;99270.96;;;22.71;51.69
60646;BME280;46462;32.608;-117.032;2023-06-14T12:15:17;99270.66;;;22.71;51.71
60646;BME280;46462;32.608;-117.032;2023-06-14T12:17:47;99269.41;;;22.69;51.72
60646;BME280;46462;32.608;-117.032;2023-06-14T12:20:18;99269.71;;;22.69;51.67
60646;BME280;46462;32.608;-117.032;2023-06-14T12:22:52;99270.40;;;22.69;51.67
60646;BME280;46462;32.608;-117.032;2023-06-14T12:25:24;99272.00;;;22.65;51.83
60646;BME280;46462;32.608;-117.032;2023-06-14T12:27:50;99272.73;;;22.63;51.92
60646;BME280;46462;32.608;-117.032;2023-06-14T12:30:21;99277.55;;;22.61;52.00
60646;BME280;46462;32.608;-117.032;2023-06-14T12:32:52;99280.85;;;22.60;52.01
60646;BME280;46462;32.608;-117.032;2023-06-14T12:35:22;99282.53;;;22.59;52.07
60646;BME280;46462;32.608;-117.032;2023-06-14T12:37:53;99279.34;;;22.60;52.01
60646;BME280;46462;32.608;-117.032;2023-06-14T12:40:25;99280.99;;;22.63;51.87
60646;BME280;46462;32.608;-117.032;2023-06-14T12:42:55;99285.24;;;22.61;51.83
60646;BME280;46462;32.608;-117.032;2023-06-14T12:45:25;99285.97;;;22.60;51.86
60646;BME280;46462;32.608;-117.032;2023-06-14T12:47:56;99286.83;;;22.58;51.96
60646;BME280;46462;32.608;-117.032;2023-06-14T12:50:27;99288.93;;;22.58;51.96
60646;BME280;46462;32.608;-117.032;2023-06-14T12:52:58;99290.00;;;22.59;51.95
60646;BME280;46462;32.608;-117.032;2023-06-14T12:55:28;99289.26;;;22.58;51.92